sensor_id;sensor_type;location;lat;lon;timestamp;P1;durP1;ratioP1;P2;durP2;ratioP2
65368;SDS011;51970;53.484;49.488;2023-08-17T00:00:52;25.45;;;12.70;;
65368;SDS011;51970;53.484;49.488;2023-08-17T00:03:18;26.45;;;13.70;;
65368;SDS011;51970;53.484;49.488;2023-08-17T00:05:45;29.38;;;13.18;;
65368;SDS011;51970;53.484;49.488;2023-08-17T00:08:11;23.40;;;16.45;;
65368;SDS011;51970;53.484;49.488;2023-08-17T00:10:37;34.25;;;13.70;;
65368;SDS011;51970;53.484;49.488;2023-08-17T00:13:04;35.83;;;17.15;;
65368;SDS011;51970;53.484;49.488;2023-08-17T00:15:30;25.45;;;13.63;;
65368;SDS011;51970;53.484;49.488;2023-08-17T00:17:57;27.80;;;15.10;;
65368;SDS011;51970;53.484;49.488;2023-08-17T00:20:24;24.45;;;16.52;;
65368;SDS011;51970;53.484;49.488;2023-08-17T00:22:50;27.02;;;12.48;;
65368;SDS011;51970;53.484;49.488;2023-08-17T00:25:16;26.83;;;12.93;;
65368;SDS011;51970;53.484;49.488;2023-08-17T00:27:42;21.27;;;12.55;;
65368;SDS011;51970;53.484;49.488;2023-08-17T00:30:09;20.02;;;14.13;;
65368;SDS011;51970;53.484;49.488;2023-08-17T00:32:35;18.92;;;11.18;;
65368;SDS011;51970;53.484;49.488;2023-08-17T00:35:02;19.15;;;14.82;;
65368;SDS011;51970;53.484;49.488;2023-08-17T00:37:28;18.92;;;10.90;;
65368;SDS011;51970;53.484;49.488;2023-08-17T00:39:55;21.48;;;12.00;;
65368;SDS011;51970;53.484;49.488;2023-08-17T00:42:21;22.40;;;12.88;;
65368;SDS011;51970;53.484;49.488;2023-08-17T00:44:47;26.23;;;13.27;;
65368;SDS011;51970;53.484;49.488;2023-08-17T00:47:13;28.45;;;14.32;;
65368;SDS011;51970;53.484;49.488;2023-08-17T00:49:40;28.98;;;17.85;;
65368;SDS011;51970;53.484;49.488;2023-08-17T00:52:06;28.65;;;15.15;;
65368;SDS011;51970;53.484;49.488;2023-08-17T00:54:33;31.33;;;16.42;;
65368;SDS011;51970;53.484;49.488;2023-08-17T00:56:59;37.67;;;18.95;;
65368;SDS011;51970;53.484;49.488;2023-08-17T00:59:26;30.35;;;16.05;;
65368;SDS011;51970;53.484;49.488;2023-08-17T01:01:53;22.70;;;12.77;;
65368;SDS011;51970;53.484;49.488;2023-08-17T01:04:19;23.40;;;12.60;;
65368;SDS011;51970;53.484;49.488;2023-08-17T01:06:45;24.73;;;14.10;;
65368;SDS011;51970;53.484;49.488;2023-08-17T01:09:12;30.25;;;12.95;;
65368;SDS011;51970;53.484;49.488;2023-08-17T01:17:12;23.98;;;12.27;;
65368;SDS011;51970;53.484;49.488;2023-08-17T01:19:50;23.10;;;12.18;;
65368;SDS011;51970;53.484;49.488;2023-08-17T01:22:17;28.85;;;16.33;;
65368;SDS011;51970;53.484;49.488;2023-08-17T01:24:48;23.95;;;12.52;;
65368;SDS011;51970;53.484;49.488;2023-08-17T01:27:14;29.77;;;13.98;;
65368;SDS011;51970;53.484;49.488;2023-08-17T01:29:41;25.85;;;15.40;;
65368;SDS011;51970;53.484;49.488;2023-08-17T01:32:12;21.98;;;13.95;;
65368;SDS011;51970;53.484;49.488;2023-08-17T01:34:44;21.65;;;11.82;;
65368;SDS011;51970;53.484;49.488;2023-08-17T01:37:17;25.77;;;12.48;;
65368;SDS011;51970;53.484;49.488;2023-08-17T01:39:47;23.45;;;11.88;;
65368;SDS011;51970;53.484;49.488;2023-08-17T01:42:18;28.17;;;16.08;;
65368;SDS011;51970;53.484;49.488;2023-08-17T01:44:45;23.35;;;12.93;;
65368;SDS011;51970;53.484;49.488;2023-08-17T01:47:12;21.35;;;13.05;;
65368;SDS011;51970;53.484;49.488;2023-08-17T01:49:38;20.73;;;11.77;;
65368;SDS011;51970;53.484;49.488;2023-08-17T01:52:05;27.35;;;15.25;;
65368;SDS011;51970;53.484;49.488;2023-08-17T01:54:31;23.63;;;13.75;;
65368;SDS011;51970;53.484;49.488;2023-08-17T01:56:57;23.83;;;13.75;;
65368;SDS011;51970;53.484;49.488;2023-08-17T01:59:24;24.50;;;13.00;;
65368;SDS011;51970;53.484;49.488;2023-08-17T02:01:50;22.63;;;12.68;;
65368;SDS011;51970;53.484;49.488;2023-08-17T02:04:16;20.08;;;13.18;;
65368;SDS011;51970;53.484;49.488;2023-08-17T02:06:42;22.17;;;12.10;;
65368;SDS011;51970;53.484;49.488;2023-08-17T02:09:09;22.35;;;16.70;;
65368;SDS011;51970;53.484;49.488;2023-08-17T02:11:35;27.80;;;17.70;;
65368;SDS011;51970;53.484;49.488;2023-08-17T02:14:01;20.85;;;14.68;;
65368;SDS011;51970;53.484;49.488;2023-08-17T02:16:27;23.75;;;14.73;;
65368;SDS011;51970;53.484;49.488;2023-08-17T02:18:53;24.45;;;13.63;;
65368;SDS011;51970;53.484;49.488;2023-08-17T02:21:20;20.42;;;13.32;;
65368;SDS011;51970;53.484;49.488;2023-08-17T02:23:46;24.40;;;17.02;;
65368;SDS011;51970;53.484;49.488;2023-08-17T02:26:12;20.85;;;12.43;;
65368;SDS011;51970;53.484;49.488;2023-08-17T02:28:38;21.70;;;13.65;;
65368;SDS011;51970;53.484;49.488;2023-08-17T02:31:05;25.65;;;17.63;;
65368;SDS011;51970;53.484;49.488;2023-08-17T02:33:32;23.70;;;14.73;;
65368;SDS011;51970;53.484;49.488;2023-08-17T02:35:59;24.58;;;17.45;;
65368;SDS011;51970;53.484;49.488;2023-08-17T02:38:26;20.48;;;15.20;;
65368;SDS011;51970;53.484;49.488;2023-08-17T02:40:53;22.30;;;15.48;;
65368;SDS011;51970;53.484;49.488;2023-08-17T02:43:19;19.23;;;14.57;;
65368;SDS011;51970;53.484;49.488;2023-08-17T02:45:45;25.45;;;18.05;;
65368;SDS011;51970;53.484;49.488;2023-08-17T02:48:11;23.13;;;15.05;;
65368;SDS011;51970;53.484;49.488;2023-08-17T02:50:38;24.80;;;18.92;;
65368;SDS011;51970;53.484;49.488;2023-08-17T02:53:05;25.60;;;16.02;;
65368;SDS011;51970;53.484;49.488;2023-08-17T02:55:31;33.38;;;19.27;;
65368;SDS011;51970;53.484;49.488;2023-08-17T02:57:57;38.35;;;23.20;;
65368;SDS011;51970;53.484;49.488;2023-08-17T03:00:23;37.15;;;20.95;;
65368;SDS011;51970;53.484;49.488;2023-08-17T03:02:50;36.15;;;20.58;;
65368;SDS011;51970;53.484;49.488;2023-08-17T03:05:16;38.50;;;19.10;;
65368;SDS011;51970;53.484;49.488;2023-08-17T03:07:42;38.00;;;17.67;;
65368;SDS011;51970;53.484;49.488;2023-08-17T03:10:08;36.75;;;19.25;;
65368;SDS011;51970;53.484;49.488;2023-08-17T03:12:35;42.08;;;21.45;;
65368;SDS011;51970;53.484;49.488;2023-08-17T03:15:04;44.17;;;21.83;;
65368;SDS011;51970;53.484;49.488;2023-08-17T03:17:31;37.38;;;18.48;;
65368;SDS011;51970;53.484;49.488;2023-08-17T03:19:57;44.53;;;19.02;;
65368;SDS011;51970;53.484;49.488;2023-08-17T03:22:25;43.00;;;17.85;;
65368;SDS011;51970;53.484;49.488;2023-08-17T03:24:54;39.80;;;22.08;;
65368;SDS011;51970;53.484;49.488;2023-08-17T03:27:21;37.80;;;18.08;;
65368;SDS011;51970;53.484;49.488;2023-08-17T03:29:47;45.38;;;23.40;;
65368;SDS011;51970;53.484;49.488;2023-08-17T03:32:13;38.03;;;21.65;;
65368;SDS011;51970;53.484;49.488;2023-08-17T03:34:39;36.95;;;20.42;;
65368;SDS011;51970;53.484;49.488;2023-08-17T03:37:06;34.90;;;17.65;;
65368;SDS011;51970;53.484;49.488;2023-08-17T03:39:32;36.85;;;18.90;;
65368;SDS011;51970;53.484;49.488;2023-08-17T03:41:58;40.63;;;20.38;;
65368;SDS011;51970;53.484;49.488;2023-08-17T03:44:24;33.90;;;18.83;;
65368;SDS011;51970;53.484;49.488;2023-08-17T03:46:50;28.13;;;18.35;;
65368;SDS011;51970;53.484;49.488;2023-08-17T03:49:17;23.85;;;13.70;;
65368;SDS011;51970;53.484;49.488;2023-08-17T03:51:43;22.42;;;16.38;;
65368;SDS011;51970;53.484;49.488;2023-08-17T03:54:09;20.30;;;15.00;;
65368;SDS011;51970;53.484;49.488;2023-08-17T03:56:35;21.23;;;13.07;;
65368;SDS011;51970;53.484;49.488;2023-08-17T03:59:02;21.77;;;16.17;;
65368;SDS011;51970;53.484;49.488;2023-08-17T04:01:29;18.63;;;15.65;;
65368;SDS011;51970;53.484;49.488;2023-08-17T04:03:55;18.70;;;12.80;;
65368;SDS011;51970;53.484;49.488;2023-08-17T04:06:22;19.50;;;15.40;;
65368;SDS011;51970;53.484;49.488;2023-08-17T04:08:48;20.52;;;11.85;;
65368;SDS011;51970;53.484;49.488;2023-08-17T04:11:14;20.23;;;12.88;;
65368;SDS011;51970;53.484;49.488;2023-08-17T04:13:41;18.88;;;11.02;;
65368;SDS011;51970;53.484;49.488;2023-08-17T04:16:07;23.67;;;13.07;;
65368;SDS011;51970;53.484;49.488;2023-08-17T04:18:33;18.70;;;12.00;;
65368;SDS011;51970;53.484;49.488;2023-08-17T04:20:59;20.95;;;12.23;;
65368;SDS011;51970;53.484;49.488;2023-08-17T04:23:25;19.90;;;14.70;;
65368;SDS011;51970;53.484;49.488;2023-08-17T04:25:53;18.50;;;11.75;;
65368;SDS011;51970;53.484;49.488;2023-08-17T04:28:19;18.55;;;11.90;;
65368;SDS011;51970;53.484;49.488;2023-08-17T04:30:46;16.83;;;11.15;;
65368;SDS011;51970;53.484;49.488;2023-08-17T04:33:12;18.98;;;11.52;;
65368;SDS011;51970;53.484;49.488;2023-08-17T04:35:38;17.13;;;10.93;;
65368;SDS011;51970;53.484;49.488;2023-08-17T04:38:05;18.67;;;11.75;;
65368;SDS011;51970;53.484;49.488;2023-08-17T04:40:32;18.83;;;11.05;;
65368;SDS011;51970;53.484;49.488;2023-08-17T04:42:59;14.50;;;9.27;;
65368;SDS011;51970;53.484;49.488;2023-08-17T04:45:25;15.48;;;11.20;;
65368;SDS011;51970;53.484;49.488;2023-08-17T04:47:51;12.93;;;8.95;;
65368;SDS011;51970;53.484;49.488;2023-08-17T04:50:17;18.98;;;11.85;;
65368;SDS011;51970;53.484;49.488;2023-08-17T04:52:44;13.80;;;7.82;;
65368;SDS011;51970;53.484;49.488;2023-08-17T04:55:10;14.45;;;7.80;;
65368;SDS011;51970;53.484;49.488;2023-08-17T04:57:38;18.52;;;12.27;;
65368;SDS011;51970;53.484;49.488;2023-08-17T05:00:04;13.25;;;9.52;;
65368;SDS011;51970;53.484;49.488;2023-08-17T05:02:37;16.77;;;11.70;;
65368;SDS011;51970;53.484;49.488;2023-08-17T05:05:05;14.90;;;7.90;;
65368;SDS011;51970;53.484;49.488;2023-08-17T05:07:33;13.15;;;8.55;;
65368;SDS011;51970;53.484;49.488;2023-08-17T05:09:59;14.32;;;8.38;;
65368;SDS011;51970;53.484;49.488;2023-08-17T05:12:26;15.73;;;7.95;;
65368;SDS011;51970;53.484;49.488;2023-08-17T05:14:52;17.48;;;11.90;;
65368;SDS011;51970;53.484;49.488;2023-08-17T05:17:19;13.68;;;9.95;;
65368;SDS011;51970;53.484;49.488;2023-08-17T05:19:45;19.77;;;9.18;;
65368;SDS011;51970;53.484;49.488;2023-08-17T05:22:12;16.63;;;8.10;;
65368;SDS011;51970;53.484;49.488;2023-08-17T05:24:39;15.40;;;10.68;;
65368;SDS011;51970;53.484;49.488;2023-08-17T05:27:05;19.02;;;11.18;;
65368;SDS011;51970;53.484;49.488;2023-08-17T05:29:32;23.55;;;11.32;;
65368;SDS011;51970;53.484;49.488;2023-08-17T05:31:58;14.02;;;9.80;;
65368;SDS011;51970;53.484;49.488;2023-08-17T05:34:24;15.07;;;7.60;;
65368;SDS011;51970;53.484;49.488;2023-08-17T05:36:50;17.52;;;9.75;;
65368;SDS011;51970;53.484;49.488;2023-08-17T05:39:17;13.27;;;6.65;;
65368;SDS011;51970;53.484;49.488;2023-08-17T05:41:43;10.98;;;7.97;;
65368;SDS011;51970;53.484;49.488;2023-08-17T05:44:09;12.90;;;7.97;;
65368;SDS011;51970;53.484;49.488;2023-08-17T05:46:36;13.43;;;8.20;;
65368;SDS011;51970;53.484;49.488;2023-08-17T05:49:02;15.82;;;9.63;;
65368;SDS011;51970;53.484;49.488;2023-08-17T05:51:30;18.25;;;8.30;;
65368;SDS011;51970;53.484;49.488;2023-08-17T05:53:56;13.95;;;6.50;;
65368;SDS011;51970;53.484;49.488;2023-08-17T05:56:23;11.15;;;8.88;;
65368;SDS011;51970;53.484;49.488;2023-08-17T05:58:49;13.02;;;7.00;;
65368;SDS011;51970;53.484;49.488;2023-08-17T06:01:15;11.05;;;7.97;;
65368;SDS011;51970;53.484;49.488;2023-08-17T06:03:42;14.45;;;6.38;;
65368;SDS011;51970;53.484;49.488;2023-08-17T06:06:09;17.27;;;6.00;;
65368;SDS011;51970;53.484;49.488;2023-08-17T06:08:35;10.57;;;5.57;;
65368;SDS011;51970;53.484;49.488;2023-08-17T06:11:01;13.82;;;7.80;;
65368;SDS011;51970;53.484;49.488;2023-08-17T06:13:28;13.00;;;8.30;;
65368;SDS011;51970;53.484;49.488;2023-08-17T06:15:55;13.60;;;8.48;;
65368;SDS011;51970;53.484;49.488;2023-08-17T06:18:22;12.90;;;5.30;;
65368;SDS011;51970;53.484;49.488;2023-08-17T06:20:49;12.88;;;5.15;;
65368;SDS011;51970;53.484;49.488;2023-08-17T06:23:17;11.60;;;7.53;;
65368;SDS011;51970;53.484;49.488;2023-08-17T06:25:44;14.50;;;6.97;;
65368;SDS011;51970;53.484;49.488;2023-08-17T06:28:10;11.43;;;7.60;;
65368;SDS011;51970;53.484;49.488;2023-08-17T06:30:36;11.20;;;6.95;;
65368;SDS011;51970;53.484;49.488;2023-08-17T06:33:03;13.70;;;7.53;;
65368;SDS011;51970;53.484;49.488;2023-08-17T06:35:31;11.05;;;8.05;;
65368;SDS011;51970;53.484;49.488;2023-08-17T06:37:57;8.43;;;4.65;;
65368;SDS011;51970;53.484;49.488;2023-08-17T06:40:24;12.07;;;8.07;;
65368;SDS011;51970;53.484;49.488;2023-08-17T06:42:50;14.45;;;7.15;;
65368;SDS011;51970;53.484;49.488;2023-08-17T06:45:17;12.75;;;7.43;;
65368;SDS011;51970;53.484;49.488;2023-08-17T06:47:44;11.02;;;6.40;;
65368;SDS011;51970;53.484;49.488;2023-08-17T06:50:11;11.73;;;7.18;;
65368;SDS011;51970;53.484;49.488;2023-08-17T06:52:37;13.38;;;6.80;;
65368;SDS011;51970;53.484;49.488;2023-08-17T06:55:04;15.07;;;8.60;;
65368;SDS011;51970;53.484;49.488;2023-08-17T06:57:31;12.00;;;5.65;;
65368;SDS011;51970;53.484;49.488;2023-08-17T06:59:57;11.93;;;8.02;;
65368;SDS011;51970;53.484;49.488;2023-08-17T07:02:23;12.50;;;8.60;;
65368;SDS011;51970;53.484;49.488;2023-08-17T07:04:50;10.25;;;7.22;;
65368;SDS011;51970;53.484;49.488;2023-08-17T07:07:16;12.90;;;7.97;;
65368;SDS011;51970;53.484;49.488;2023-08-17T07:09:42;12.20;;;6.60;;
65368;SDS011;51970;53.484;49.488;2023-08-17T07:12:08;12.63;;;6.85;;
65368;SDS011;51970;53.484;49.488;2023-08-17T07:14:35;10.57;;;7.18;;
65368;SDS011;51970;53.484;49.488;2023-08-17T07:17:01;14.00;;;7.57;;
65368;SDS011;51970;53.484;49.488;2023-08-17T07:19:27;16.05;;;8.40;;
65368;SDS011;51970;53.484;49.488;2023-08-17T07:21:53;13.77;;;6.90;;
65368;SDS011;51970;53.484;49.488;2023-08-17T07:24:20;14.38;;;5.03;;
65368;SDS011;51970;53.484;49.488;2023-08-17T07:26:46;11.00;;;7.25;;
65368;SDS011;51970;53.484;49.488;2023-08-17T07:29:12;11.38;;;4.97;;
65368;SDS011;51970;53.484;49.488;2023-08-17T07:31:39;12.95;;;8.02;;
65368;SDS011;51970;53.484;49.488;2023-08-17T07:34:05;11.93;;;7.00;;
65368;SDS011;51970;53.484;49.488;2023-08-17T07:36:32;14.02;;;7.00;;
65368;SDS011;51970;53.484;49.488;2023-08-17T07:38:59;14.48;;;6.80;;
65368;SDS011;51970;53.484;49.488;2023-08-17T07:41:25;15.07;;;7.90;;
65368;SDS011;51970;53.484;49.488;2023-08-17T07:43:52;14.27;;;6.65;;
65368;SDS011;51970;53.484;49.488;2023-08-17T07:46:18;10.98;;;6.93;;
65368;SDS011;51970;53.484;49.488;2023-08-17T07:48:44;13.73;;;7.22;;
65368;SDS011;51970;53.484;49.488;2023-08-17T07:51:10;13.00;;;7.05;;
65368;SDS011;51970;53.484;49.488;2023-08-17T07:53:37;12.13;;;6.30;;
65368;SDS011;51970;53.484;49.488;2023-08-17T07:56:03;17.65;;;8.45;;
65368;SDS011;51970;53.484;49.488;2023-08-17T07:58:29;16.35;;;8.68;;
65368;SDS011;51970;53.484;49.488;2023-08-17T08:00:56;9.38;;;6.13;;
65368;SDS011;51970;53.484;49.488;2023-08-17T08:03:22;16.55;;;7.50;;
65368;SDS011;51970;53.484;49.488;2023-08-17T08:05:48;11.60;;;7.72;;
65368;SDS011;51970;53.484;49.488;2023-08-17T08:08:14;10.00;;;5.03;;
65368;SDS011;51970;53.484;49.488;2023-08-17T08:10:43;11.20;;;6.35;;
65368;SDS011;51970;53.484;49.488;2023-08-17T08:13:09;13.57;;;6.53;;
65368;SDS011;51970;53.484;49.488;2023-08-17T08:15:36;17.40;;;7.70;;
65368;SDS011;51970;53.484;49.488;2023-08-17T08:18:02;12.90;;;7.10;;
65368;SDS011;51970;53.484;49.488;2023-08-17T08:20:28;12.85;;;7.05;;
65368;SDS011;51970;53.484;49.488;2023-08-17T08:22:55;13.10;;;6.97;;
65368;SDS011;51970;53.484;49.488;2023-08-17T08:25:21;13.02;;;6.43;;
65368;SDS011;51970;53.484;49.488;2023-08-17T08:27:47;14.00;;;7.60;;
65368;SDS011;51970;53.484;49.488;2023-08-17T08:30:13;12.10;;;7.03;;
65368;SDS011;51970;53.484;49.488;2023-08-17T08:32:40;14.10;;;6.65;;
65368;SDS011;51970;53.484;49.488;2023-08-17T08:35:06;10.88;;;6.40;;
65368;SDS011;51970;53.484;49.488;2023-08-17T08:37:32;11.55;;;6.15;;
65368;SDS011;51970;53.484;49.488;2023-08-17T08:39:59;15.82;;;6.05;;
65368;SDS011;51970;53.484;49.488;2023-08-17T08:42:25;17.23;;;6.30;;
65368;SDS011;51970;53.484;49.488;2023-08-17T08:44:51;8.30;;;3.80;;
65368;SDS011;51970;53.484;49.488;2023-08-17T08:47:18;14.35;;;6.63;;
65368;SDS011;51970;53.484;49.488;2023-08-17T08:49:49;9.35;;;5.13;;
65368;SDS011;51970;53.484;49.488;2023-08-17T08:52:22;8.93;;;4.38;;
65368;SDS011;51970;53.484;49.488;2023-08-17T08:54:49;9.27;;;5.97;;
65368;SDS011;51970;53.484;49.488;2023-08-17T08:57:18;14.25;;;5.50;;
65368;SDS011;51970;53.484;49.488;2023-08-17T08:59:45;20.30;;;5.32;;
65368;SDS011;51970;53.484;49.488;2023-08-17T09:02:14;14.95;;;5.63;;
65368;SDS011;51970;53.484;49.488;2023-08-17T09:04:42;14.93;;;5.25;;
65368;SDS011;51970;53.484;49.488;2023-08-17T09:07:12;13.15;;;6.47;;
65368;SDS011;51970;53.484;49.488;2023-08-17T09:09:44;9.68;;;4.65;;
65368;SDS011;51970;53.484;49.488;2023-08-17T09:12:11;12.07;;;5.65;;
65368;SDS011;51970;53.484;49.488;2023-08-17T09:14:37;12.80;;;5.30;;
65368;SDS011;51970;53.484;49.488;2023-08-17T09:17:05;9.85;;;5.93;;
65368;SDS011;51970;53.484;49.488;2023-08-17T09:19:34;12.52;;;7.78;;
65368;SDS011;51970;53.484;49.488;2023-08-17T09:22:00;9.55;;;4.93;;
65368;SDS011;51970;53.484;49.488;2023-08-17T09:24:36;12.07;;;4.88;;
65368;SDS011;51970;53.484;49.488;2023-08-17T09:27:03;13.35;;;5.18;;
65368;SDS011;51970;53.484;49.488;2023-08-17T09:29:30;10.93;;;5.43;;
65368;SDS011;51970;53.484;49.488;2023-08-17T09:32:06;11.88;;;7.50;;
65368;SDS011;51970;53.484;49.488;2023-08-17T09:34:33;12.85;;;5.35;;
65368;SDS011;51970;53.484;49.488;2023-08-17T09:37:03;12.77;;;6.78;;
65368;SDS011;51970;53.484;49.488;2023-08-17T09:39:33;11.82;;;5.20;;
65368;SDS011;51970;53.484;49.488;2023-08-17T09:41:59;19.02;;;8.77;;
65368;SDS011;51970;53.484;49.488;2023-08-17T09:44:26;13.98;;;7.30;;
65368;SDS011;51970;53.484;49.488;2023-08-17T09:46:56;11.95;;;5.10;;
65368;SDS011;51970;53.484;49.488;2023-08-17T09:49:25;9.68;;;5.10;;
65368;SDS011;51970;53.484;49.488;2023-08-17T09:51:52;13.32;;;7.05;;
65368;SDS011;51970;53.484;49.488;2023-08-17T09:54:22;16.75;;;6.03;;
65368;SDS011;51970;53.484;49.488;2023-08-17T09:56:50;13.38;;;5.15;;
65368;SDS011;51970;53.484;49.488;2023-08-17T09:59:17;11.32;;;5.60;;
65368;SDS011;51970;53.484;49.488;2023-08-17T10:01:43;11.75;;;5.63;;
65368;SDS011;51970;53.484;49.488;2023-08-17T10:04:11;13.90;;;5.10;;
65368;SDS011;51970;53.484;49.488;2023-08-17T10:06:40;10.75;;;6.68;;
65368;SDS011;51970;53.484;49.488;2023-08-17T10:09:09;10.15;;;4.32;;
65368;SDS011;51970;53.484;49.488;2023-08-17T10:11:37;9.93;;;5.22;;
65368;SDS011;51970;53.484;49.488;2023-08-17T10:14:09;14.50;;;6.45;;
65368;SDS011;51970;53.484;49.488;2023-08-17T10:16:44;10.57;;;5.22;;
65368;SDS011;51970;53.484;49.488;2023-08-17T10:21:48;13.93;;;5.68;;
65368;SDS011;51970;53.484;49.488;2023-08-17T10:24:20;11.07;;;5.32;;
65368;SDS011;51970;53.484;49.488;2023-08-17T10:26:46;14.10;;;6.00;;
65368;SDS011;51970;53.484;49.488;2023-08-17T10:29:13;10.15;;;5.57;;
65368;SDS011;51970;53.484;49.488;2023-08-17T10:31:43;10.23;;;5.10;;
65368;SDS011;51970;53.484;49.488;2023-08-17T10:34:13;14.35;;;5.78;;
65368;SDS011;51970;53.484;49.488;2023-08-17T10:36:40;11.48;;;6.10;;
65368;SDS011;51970;53.484;49.488;2023-08-17T10:39:20;11.32;;;5.63;;
65368;SDS011;51970;53.484;49.488;2023-08-17T10:41:48;9.73;;;5.35;;
65368;SDS011;51970;53.484;49.488;2023-08-17T10:47:28;10.60;;;5.28;;
65368;SDS011;51970;53.484;49.488;2023-08-17T10:52:31;12.07;;;6.03;;
65368;SDS011;51970;53.484;49.488;2023-08-17T10:55:01;13.20;;;6.40;;
65368;SDS011;51970;53.484;49.488;2023-08-17T10:57:37;12.52;;;5.78;;
65368;SDS011;51970;53.484;49.488;2023-08-17T11:00:13;10.27;;;5.10;;
65368;SDS011;51970;53.484;49.488;2023-08-17T11:02:40;11.15;;;5.90;;
65368;SDS011;51970;53.484;49.488;2023-08-17T11:05:09;10.35;;;5.40;;
65368;SDS011;51970;53.484;49.488;2023-08-17T11:07:41;11.65;;;5.90;;
65368;SDS011;51970;53.484;49.488;2023-08-17T11:12:44;11.52;;;6.15;;
65368;SDS011;51970;53.484;49.488;2023-08-17T11:15:10;13.65;;;5.78;;
65368;SDS011;51970;53.484;49.488;2023-08-17T11:17:37;8.98;;;5.60;;
65368;SDS011;51970;53.484;49.488;2023-08-17T11:20:03;12.73;;;7.60;;
65368;SDS011;51970;53.484;49.488;2023-08-17T11:22:30;9.05;;;5.47;;
65368;SDS011;51970;53.484;49.488;2023-08-17T11:24:57;10.45;;;6.50;;
65368;SDS011;51970;53.484;49.488;2023-08-17T11:27:24;12.60;;;6.82;;
65368;SDS011;51970;53.484;49.488;2023-08-17T11:29:51;9.80;;;5.85;;
65368;SDS011;51970;53.484;49.488;2023-08-17T11:32:17;12.10;;;5.93;;
65368;SDS011;51970;53.484;49.488;2023-08-17T11:34:44;11.75;;;5.57;;
65368;SDS011;51970;53.484;49.488;2023-08-17T11:37:13;9.70;;;6.32;;
65368;SDS011;51970;53.484;49.488;2023-08-17T11:39:40;14.57;;;7.60;;
65368;SDS011;51970;53.484;49.488;2023-08-17T11:42:08;12.65;;;7.82;;
65368;SDS011;51970;53.484;49.488;2023-08-17T11:44:35;10.63;;;6.25;;
65368;SDS011;51970;53.484;49.488;2023-08-17T11:47:01;32.53;;;16.02;;
65368;SDS011;51970;53.484;49.488;2023-08-17T11:49:30;13.63;;;6.70;;
65368;SDS011;51970;53.484;49.488;2023-08-17T11:51:56;11.00;;;5.40;;
65368;SDS011;51970;53.484;49.488;2023-08-17T11:54:23;11.95;;;6.38;;
65368;SDS011;51970;53.484;49.488;2023-08-17T11:56:49;13.65;;;6.75;;
65368;SDS011;51970;53.484;49.488;2023-08-17T11:59:15;9.07;;;5.80;;
65368;SDS011;51970;53.484;49.488;2023-08-17T12:01:44;14.45;;;6.57;;
65368;SDS011;51970;53.484;49.488;2023-08-17T12:04:11;18.42;;;8.25;;
65368;SDS011;51970;53.484;49.488;2023-08-17T12:06:40;15.40;;;7.30;;
65368;SDS011;51970;53.484;49.488;2023-08-17T12:09:09;14.90;;;8.35;;
65368;SDS011;51970;53.484;49.488;2023-08-17T12:11:38;13.15;;;6.68;;
65368;SDS011;51970;53.484;49.488;2023-08-17T12:14:10;9.38;;;5.75;;
65368;SDS011;51970;53.484;49.488;2023-08-17T12:16:48;11.25;;;5.28;;
65368;SDS011;51970;53.484;49.488;2023-08-17T12:19:14;12.07;;;6.57;;
65368;SDS011;51970;53.484;49.488;2023-08-17T12:21:46;11.82;;;5.97;;
65368;SDS011;51970;53.484;49.488;2023-08-17T12:24:15;8.30;;;3.42;;
65368;SDS011;51970;53.484;49.488;2023-08-17T12:26:42;15.55;;;5.80;;
65368;SDS011;51970;53.484;49.488;2023-08-17T12:29:10;11.93;;;5.60;;
65368;SDS011;51970;53.484;49.488;2023-08-17T12:31:36;12.55;;;5.68;;
65368;SDS011;51970;53.484;49.488;2023-08-17T12:34:04;10.30;;;6.38;;
65368;SDS011;51970;53.484;49.488;2023-08-17T12:36:31;8.52;;;5.15;;
65368;SDS011;51970;53.484;49.488;2023-08-17T12:38:58;12.68;;;5.30;;
65368;SDS011;51970;53.484;49.488;2023-08-17T12:41:24;10.98;;;6.55;;
65368;SDS011;51970;53.484;49.488;2023-08-17T12:43:51;15.32;;;5.72;;
65368;SDS011;51970;53.484;49.488;2023-08-17T12:46:19;9.63;;;4.93;;
65368;SDS011;51970;53.484;49.488;2023-08-17T12:48:45;9.85;;;5.55;;
65368;SDS011;51970;53.484;49.488;2023-08-17T12:51:12;10.82;;;5.60;;
65368;SDS011;51970;53.484;49.488;2023-08-17T12:53:38;12.88;;;5.85;;
65368;SDS011;51970;53.484;49.488;2023-08-17T12:56:07;11.63;;;5.88;;
65368;SDS011;51970;53.484;49.488;2023-08-17T12:58:34;7.57;;;4.07;;
65368;SDS011;51970;53.484;49.488;2023-08-17T13:01:00;9.75;;;5.90;;
65368;SDS011;51970;53.484;49.488;2023-08-17T13:03:27;10.98;;;5.20;;
65368;SDS011;51970;53.484;49.488;2023-08-17T13:05:53;10.50;;;5.45;;
65368;SDS011;51970;53.484;49.488;2023-08-17T13:08:20;14.50;;;5.40;;
65368;SDS011;51970;53.484;49.488;2023-08-17T13:10:46;10.73;;;4.90;;
65368;SDS011;51970;53.484;49.488;2023-08-17T13:13:12;10.27;;;4.90;;
65368;SDS011;51970;53.484;49.488;2023-08-17T13:15:39;28.60;;;6.72;;
65368;SDS011;51970;53.484;49.488;2023-08-17T13:18:05;26.08;;;9.02;;
65368;SDS011;51970;53.484;49.488;2023-08-17T13:20:32;16.25;;;6.30;;
65368;SDS011;51970;53.484;49.488;2023-08-17T13:22:58;28.73;;;7.65;;
65368;SDS011;51970;53.484;49.488;2023-08-17T13:25:24;15.55;;;5.00;;
65368;SDS011;51970;53.484;49.488;2023-08-17T13:27:51;14.75;;;6.63;;
65368;SDS011;51970;53.484;49.488;2023-08-17T13:30:17;12.85;;;5.80;;
65368;SDS011;51970;53.484;49.488;2023-08-17T13:32:43;15.80;;;8.05;;
65368;SDS011;51970;53.484;49.488;2023-08-17T13:35:10;14.10;;;6.75;;
65368;SDS011;51970;53.484;49.488;2023-08-17T13:37:36;19.52;;;8.82;;
65368;SDS011;51970;53.484;49.488;2023-08-17T13:40:03;27.00;;;15.10;;
65368;SDS011;51970;53.484;49.488;2023-08-17T13:42:30;25.42;;;10.65;;
65368;SDS011;51970;53.484;49.488;2023-08-17T13:44:56;17.67;;;9.48;;
65368;SDS011;51970;53.484;49.488;2023-08-17T13:47:22;25.77;;;10.55;;
65368;SDS011;51970;53.484;49.488;2023-08-17T13:49:48;19.05;;;11.23;;
65368;SDS011;51970;53.484;49.488;2023-08-17T13:52:15;20.65;;;10.63;;
65368;SDS011;51970;53.484;49.488;2023-08-17T13:54:41;19.25;;;10.02;;
65368;SDS011;51970;53.484;49.488;2023-08-17T13:57:07;20.98;;;10.77;;
65368;SDS011;51970;53.484;49.488;2023-08-17T13:59:34;18.90;;;10.82;;
65368;SDS011;51970;53.484;49.488;2023-08-17T14:02:00;15.07;;;8.30;;
65368;SDS011;51970;53.484;49.488;2023-08-17T14:04:26;20.02;;;8.45;;
65368;SDS011;51970;53.484;49.488;2023-08-17T14:06:52;22.10;;;10.88;;
65368;SDS011;51970;53.484;49.488;2023-08-17T14:09:19;22.35;;;9.75;;
65368;SDS011;51970;53.484;49.488;2023-08-17T14:11:45;23.58;;;11.23;;
65368;SDS011;51970;53.484;49.488;2023-08-17T14:14:11;20.48;;;9.93;;
65368;SDS011;51970;53.484;49.488;2023-08-17T14:16:38;20.15;;;10.05;;
65368;SDS011;51970;53.484;49.488;2023-08-17T14:19:04;21.70;;;9.05;;
65368;SDS011;51970;53.484;49.488;2023-08-17T14:21:30;16.52;;;10.07;;
65368;SDS011;51970;53.484;49.488;2023-08-17T14:23:57;16.25;;;9.10;;
65368;SDS011;51970;53.484;49.488;2023-08-17T14:26:23;18.48;;;8.63;;
65368;SDS011;51970;53.484;49.488;2023-08-17T14:28:49;20.63;;;8.13;;
65368;SDS011;51970;53.484;49.488;2023-08-17T14:31:15;17.85;;;9.15;;
65368;SDS011;51970;53.484;49.488;2023-08-17T14:33:44;16.35;;;8.43;;